sensor_id;sensor_type;location;lat;lon;timestamp;P1;durP1;ratioP1;P2;durP2;ratioP2
7179;SDS011;3631;42.152;24.756;2022-11-14T00:00:24;38.63;;;23.17;;
7179;SDS011;3631;42.152;24.756;2022-11-14T00:02:52;34.57;;;22.63;;
7179;SDS011;3631;42.152;24.756;2022-11-14T00:05:19;37.57;;;22.50;;
7179;SDS011;3631;42.152;24.756;2022-11-14T00:07:48;38.87;;;21.90;;
7179;SDS011;3631;42.152;24.756;2022-11-14T00:10:15;34.97;;;21.73;;
7179;SDS011;3631;42.152;24.756;2022-11-14T00:12:42;38.17;;;23.10;;
7179;SDS011;3631;42.152;24.756;2022-11-14T00:15:10;36.47;;;21.90;;
7179;SDS011;3631;42.152;24.756;2022-11-14T00:17:37;37.03;;;22.47;;
7179;SDS011;3631;42.152;24.756;2022-11-14T00:20:05;34.37;;;21.80;;
7179;SDS011;3631;42.152;24.756;2022-11-14T00:22:34;38.60;;;22.83;;
7179;SDS011;3631;42.152;24.756;2022-11-14T00:25:03;36.20;;;22.47;;
7179;SDS011;3631;42.152;24.756;2022-11-14T00:27:30;38.20;;;22.17;;
7179;SDS011;3631;42.152;24.756;2022-11-14T00:29:57;38.20;;;23.03;;
7179;SDS011;3631;42.152;24.756;2022-11-14T00:32:24;38.30;;;22.80;;
7179;SDS011;3631;42.152;24.756;2022-11-14T00:34:51;38.50;;;22.17;;
7179;SDS011;3631;42.152;24.756;2022-11-14T00:37:18;33.10;;;21.57;;
7179;SDS011;3631;42.152;24.756;2022-11-14T00:39:45;41.90;;;23.23;;
7179;SDS011;3631;42.152;24.756;2022-11-14T00:42:13;37.07;;;21.77;;
7179;SDS011;3631;42.152;24.756;2022-11-14T00:44:40;36.47;;;22.67;;
7179;SDS011;3631;42.152;24.756;2022-11-14T00:47:07;36.73;;;22.97;;
7179;SDS011;3631;42.152;24.756;2022-11-14T00:49:33;36.00;;;23.20;;
7179;SDS011;3631;42.152;24.756;2022-11-14T00:52:01;35.90;;;21.83;;
7179;SDS011;3631;42.152;24.756;2022-11-14T00:54:28;39.93;;;21.37;;
7179;SDS011;3631;42.152;24.756;2022-11-14T00:56:55;32.60;;;20.23;;
7179;SDS011;3631;42.152;24.756;2022-11-14T00:59:23;34.73;;;21.63;;
7179;SDS011;3631;42.152;24.756;2022-11-14T01:01:50;37.17;;;22.33;;
7179;SDS011;3631;42.152;24.756;2022-11-14T01:04:17;34.90;;;21.20;;
7179;SDS011;3631;42.152;24.756;2022-11-14T01:06:44;37.70;;;20.73;;
7179;SDS011;3631;42.152;24.756;2022-11-14T01:09:11;38.00;;;22.90;;
7179;SDS011;3631;42.152;24.756;2022-11-14T01:11:38;32.07;;;20.70;;
7179;SDS011;3631;42.152;24.756;2022-11-14T01:14:05;36.83;;;22.90;;
7179;SDS011;3631;42.152;24.756;2022-11-14T01:16:34;36.40;;;21.63;;
7179;SDS011;3631;42.152;24.756;2022-11-14T01:19:01;33.93;;;21.23;;
7179;SDS011;3631;42.152;24.756;2022-11-14T01:21:28;38.90;;;22.50;;
7179;SDS011;3631;42.152;24.756;2022-11-14T01:23:55;37.20;;;21.90;;
7179;SDS011;3631;42.152;24.756;2022-11-14T01:26:22;39.53;;;22.90;;
7179;SDS011;3631;42.152;24.756;2022-11-14T01:28:49;36.70;;;22.70;;
7179;SDS011;3631;42.152;24.756;2022-11-14T01:31:17;35.33;;;21.30;;
7179;SDS011;3631;42.152;24.756;2022-11-14T01:33:48;38.80;;;22.77;;
7179;SDS011;3631;42.152;24.756;2022-11-14T01:36:16;37.43;;;21.80;;
7179;SDS011;3631;42.152;24.756;2022-11-14T01:38:43;39.57;;;23.20;;
7179;SDS011;3631;42.152;24.756;2022-11-14T01:41:11;37.13;;;22.63;;
7179;SDS011;3631;42.152;24.756;2022-11-14T01:43:39;38.80;;;23.20;;
7179;SDS011;3631;42.152;24.756;2022-11-14T01:46:09;39.30;;;22.90;;
7179;SDS011;3631;42.152;24.756;2022-11-14T01:48:40;35.43;;;21.57;;
7179;SDS011;3631;42.152;24.756;2022-11-14T01:51:18;39.10;;;22.33;;
7179;SDS011;3631;42.152;24.756;2022-11-14T01:53:49;36.50;;;22.40;;
7179;SDS011;3631;42.152;24.756;2022-11-14T01:56:20;37.30;;;21.73;;
7179;SDS011;3631;42.152;24.756;2022-11-14T01:58:51;37.10;;;21.20;;
7179;SDS011;3631;42.152;24.756;2022-11-14T02:01:22;36.63;;;21.17;;
7179;SDS011;3631;42.152;24.756;2022-11-14T02:03:50;37.90;;;22.07;;
7179;SDS011;3631;42.152;24.756;2022-11-14T02:06:23;38.23;;;21.80;;
7179;SDS011;3631;42.152;24.756;2022-11-14T02:08:53;35.53;;;21.87;;
7179;SDS011;3631;42.152;24.756;2022-11-14T02:11:22;40.47;;;23.87;;
7179;SDS011;3631;42.152;24.756;2022-11-14T02:13:49;41.60;;;23.47;;
7179;SDS011;3631;42.152;24.756;2022-11-14T02:16:16;43.33;;;24.10;;
7179;SDS011;3631;42.152;24.756;2022-11-14T02:18:43;38.73;;;23.17;;
7179;SDS011;3631;42.152;24.756;2022-11-14T02:21:11;37.50;;;21.80;;
7179;SDS011;3631;42.152;24.756;2022-11-14T02:23:38;38.43;;;23.30;;
7179;SDS011;3631;42.152;24.756;2022-11-14T02:26:05;37.93;;;22.00;;
7179;SDS011;3631;42.152;24.756;2022-11-14T02:28:32;37.50;;;21.77;;
7179;SDS011;3631;42.152;24.756;2022-11-14T02:30:59;38.73;;;21.43;;
7179;SDS011;3631;42.152;24.756;2022-11-14T02:33:26;36.93;;;23.07;;
7179;SDS011;3631;42.152;24.756;2022-11-14T02:35:53;36.43;;;21.53;;
7179;SDS011;3631;42.152;24.756;2022-11-14T02:38:21;37.67;;;21.43;;
7179;SDS011;3631;42.152;24.756;2022-11-14T02:40:48;34.57;;;21.70;;
7179;SDS011;3631;42.152;24.756;2022-11-14T02:43:15;32.33;;;20.57;;
7179;SDS011;3631;42.152;24.756;2022-11-14T02:45:42;32.20;;;19.20;;
7179;SDS011;3631;42.152;24.756;2022-11-14T02:48:09;34.27;;;20.57;;
7179;SDS011;3631;42.152;24.756;2022-11-14T02:50:36;37.37;;;23.17;;
7179;SDS011;3631;42.152;24.756;2022-11-14T02:53:03;37.73;;;21.47;;
7179;SDS011;3631;42.152;24.756;2022-11-14T02:55:31;34.10;;;20.93;;
7179;SDS011;3631;42.152;24.756;2022-11-14T02:57:58;33.33;;;20.47;;
7179;SDS011;3631;42.152;24.756;2022-11-14T03:00:25;34.80;;;20.30;;
7179;SDS011;3631;42.152;24.756;2022-11-14T03:02:52;34.80;;;21.03;;
7179;SDS011;3631;42.152;24.756;2022-11-14T03:05:19;35.67;;;20.43;;
7179;SDS011;3631;42.152;24.756;2022-11-14T03:07:46;34.97;;;20.27;;
7179;SDS011;3631;42.152;24.756;2022-11-14T03:10:13;31.63;;;19.43;;
7179;SDS011;3631;42.152;24.756;2022-11-14T03:12:41;33.43;;;19.63;;
7179;SDS011;3631;42.152;24.756;2022-11-14T03:15:08;32.67;;;20.47;;
7179;SDS011;3631;42.152;24.756;2022-11-14T03:17:36;33.83;;;19.33;;
7179;SDS011;3631;42.152;24.756;2022-11-14T03:20:03;30.80;;;19.27;;
7179;SDS011;3631;42.152;24.756;2022-11-14T03:22:31;33.60;;;19.87;;
7179;SDS011;3631;42.152;24.756;2022-11-14T03:24:57;29.63;;;18.27;;
7179;SDS011;3631;42.152;24.756;2022-11-14T03:27:24;32.23;;;19.50;;
7179;SDS011;3631;42.152;24.756;2022-11-14T03:29:53;30.33;;;18.83;;
7179;SDS011;3631;42.152;24.756;2022-11-14T03:32:19;32.03;;;18.83;;
7179;SDS011;3631;42.152;24.756;2022-11-14T03:34:46;34.67;;;19.17;;
7179;SDS011;3631;42.152;24.756;2022-11-14T03:37:13;31.13;;;19.43;;
7179;SDS011;3631;42.152;24.756;2022-11-14T03:39:40;30.43;;;19.30;;
7179;SDS011;3631;42.152;24.756;2022-11-14T03:42:07;31.00;;;18.90;;
7179;SDS011;3631;42.152;24.756;2022-11-14T03:44:34;35.47;;;20.07;;
7179;SDS011;3631;42.152;24.756;2022-11-14T03:47:03;32.93;;;21.00;;
7179;SDS011;3631;42.152;24.756;2022-11-14T03:49:30;34.57;;;19.97;;
7179;SDS011;3631;42.152;24.756;2022-11-14T03:51:56;34.77;;;19.60;;
7179;SDS011;3631;42.152;24.756;2022-11-14T03:54:23;36.50;;;20.43;;
7179;SDS011;3631;42.152;24.756;2022-11-14T03:56:50;28.90;;;19.53;;
7179;SDS011;3631;42.152;24.756;2022-11-14T03:59:17;38.00;;;20.90;;
7179;SDS011;3631;42.152;24.756;2022-11-14T04:01:44;29.77;;;19.77;;
7179;SDS011;3631;42.152;24.756;2022-11-14T04:04:14;34.10;;;20.63;;
7179;SDS011;3631;42.152;24.756;2022-11-14T04:06:41;30.13;;;19.17;;
7179;SDS011;3631;42.152;24.756;2022-11-14T04:09:08;31.47;;;19.07;;
7179;SDS011;3631;42.152;24.756;2022-11-14T04:11:35;30.20;;;19.67;;
7179;SDS011;3631;42.152;24.756;2022-11-14T04:14:02;34.43;;;19.63;;
7179;SDS011;3631;42.152;24.756;2022-11-14T04:16:30;31.93;;;19.93;;
7179;SDS011;3631;42.152;24.756;2022-11-14T04:18:56;31.53;;;19.97;;
7179;SDS011;3631;42.152;24.756;2022-11-14T04:21:25;32.47;;;20.50;;
7179;SDS011;3631;42.152;24.756;2022-11-14T04:23:52;34.73;;;21.17;;
7179;SDS011;3631;42.152;24.756;2022-11-14T04:26:19;32.53;;;20.13;;
7179;SDS011;3631;42.152;24.756;2022-11-14T04:28:46;34.37;;;20.70;;
7179;SDS011;3631;42.152;24.756;2022-11-14T04:31:13;34.23;;;20.07;;
7179;SDS011;3631;42.152;24.756;2022-11-14T04:33:39;31.73;;;20.57;;
7179;SDS011;3631;42.152;24.756;2022-11-14T04:36:06;31.77;;;20.63;;
7179;SDS011;3631;42.152;24.756;2022-11-14T04:38:35;34.23;;;19.73;;
7179;SDS011;3631;42.152;24.756;2022-11-14T04:41:03;34.33;;;20.07;;
7179;SDS011;3631;42.152;24.756;2022-11-14T04:43:31;35.60;;;21.20;;
7179;SDS011;3631;42.152;24.756;2022-11-14T04:45:57;35.70;;;21.50;;
7179;SDS011;3631;42.152;24.756;2022-11-14T04:48:24;36.27;;;21.33;;
7179;SDS011;3631;42.152;24.756;2022-11-14T04:50:51;33.77;;;20.77;;
7179;SDS011;3631;42.152;24.756;2022-11-14T04:53:18;33.47;;;20.63;;
7179;SDS011;3631;42.152;24.756;2022-11-14T04:55:47;36.97;;;20.87;;
7179;SDS011;3631;42.152;24.756;2022-11-14T04:58:14;36.70;;;20.40;;
7179;SDS011;3631;42.152;24.756;2022-11-14T05:00:40;32.67;;;20.00;;
7179;SDS011;3631;42.152;24.756;2022-11-14T05:03:07;36.20;;;21.07;;
7179;SDS011;3631;42.152;24.756;2022-11-14T05:05:34;37.87;;;21.83;;
7179;SDS011;3631;42.152;24.756;2022-11-14T05:08:01;35.60;;;21.93;;
7179;SDS011;3631;42.152;24.756;2022-11-14T05:10:28;35.60;;;22.00;;
7179;SDS011;3631;42.152;24.756;2022-11-14T05:12:57;37.20;;;21.80;;
7179;SDS011;3631;42.152;24.756;2022-11-14T05:15:24;41.00;;;23.57;;
7179;SDS011;3631;42.152;24.756;2022-11-14T05:17:50;40.23;;;23.50;;
7179;SDS011;3631;42.152;24.756;2022-11-14T05:20:18;41.63;;;23.73;;
7179;SDS011;3631;42.152;24.756;2022-11-14T05:22:45;43.77;;;23.67;;
7179;SDS011;3631;42.152;24.756;2022-11-14T05:25:12;43.63;;;25.10;;
7179;SDS011;3631;42.152;24.756;2022-11-14T05:27:38;44.60;;;25.17;;
7179;SDS011;3631;42.152;24.756;2022-11-14T05:30:08;45.10;;;26.83;;
7179;SDS011;3631;42.152;24.756;2022-11-14T05:32:35;51.53;;;25.97;;
7179;SDS011;3631;42.152;24.756;2022-11-14T05:35:03;37.60;;;24.33;;
7179;SDS011;3631;42.152;24.756;2022-11-14T05:37:30;43.97;;;23.30;;
7179;SDS011;3631;42.152;24.756;2022-11-14T05:39:57;39.07;;;23.03;;
7179;SDS011;3631;42.152;24.756;2022-11-14T05:42:25;44.93;;;22.17;;
7179;SDS011;3631;42.152;24.756;2022-11-14T05:44:52;36.90;;;21.03;;
7179;SDS011;3631;42.152;24.756;2022-11-14T05:47:20;34.07;;;20.50;;
7179;SDS011;3631;42.152;24.756;2022-11-14T05:49:47;37.77;;;20.13;;
7179;SDS011;3631;42.152;24.756;2022-11-14T05:52:14;33.13;;;19.33;;
7179;SDS011;3631;42.152;24.756;2022-11-14T05:54:41;33.27;;;19.63;;
7179;SDS011;3631;42.152;24.756;2022-11-14T05:57:08;39.33;;;19.50;;
7179;SDS011;3631;42.152;24.756;2022-11-14T05:59:35;33.07;;;19.23;;
7179;SDS011;3631;42.152;24.756;2022-11-14T06:02:02;36.20;;;19.97;;
7179;SDS011;3631;42.152;24.756;2022-11-14T06:04:30;44.13;;;20.47;;
7179;SDS011;3631;42.152;24.756;2022-11-14T06:06:57;40.33;;;21.87;;
7179;SDS011;3631;42.152;24.756;2022-11-14T06:09:24;41.57;;;24.93;;
7179;SDS011;3631;42.152;24.756;2022-11-14T06:11:51;44.70;;;23.90;;
7179;SDS011;3631;42.152;24.756;2022-11-14T06:14:18;36.40;;;22.10;;
7179;SDS011;3631;42.152;24.756;2022-11-14T06:16:44;39.60;;;22.63;;
7179;SDS011;3631;42.152;24.756;2022-11-14T06:19:11;37.87;;;22.53;;
7179;SDS011;3631;42.152;24.756;2022-11-14T06:21:40;39.03;;;22.50;;
7179;SDS011;3631;42.152;24.756;2022-11-14T06:24:07;35.13;;;21.67;;
7179;SDS011;3631;42.152;24.756;2022-11-14T06:26:34;42.23;;;22.67;;
7179;SDS011;3631;42.152;24.756;2022-11-14T06:29:00;36.07;;;23.03;;
7179;SDS011;3631;42.152;24.756;2022-11-14T06:31:27;40.73;;;24.10;;
7179;SDS011;3631;42.152;24.756;2022-11-14T06:33:54;39.37;;;23.70;;
7179;SDS011;3631;42.152;24.756;2022-11-14T06:36:22;41.57;;;23.83;;
7179;SDS011;3631;42.152;24.756;2022-11-14T06:38:50;46.20;;;25.23;;
7179;SDS011;3631;42.152;24.756;2022-11-14T06:41:17;47.53;;;25.57;;
7179;SDS011;3631;42.152;24.756;2022-11-14T06:43:46;48.70;;;26.97;;
7179;SDS011;3631;42.152;24.756;2022-11-14T06:46:15;50.13;;;25.43;;
7179;SDS011;3631;42.152;24.756;2022-11-14T06:48:44;44.23;;;25.23;;
7179;SDS011;3631;42.152;24.756;2022-11-14T06:51:13;39.50;;;25.47;;
7179;SDS011;3631;42.152;24.756;2022-11-14T06:53:40;37.90;;;25.17;;
7179;SDS011;3631;42.152;24.756;2022-11-14T06:56:10;39.00;;;22.30;;
7179;SDS011;3631;42.152;24.756;2022-11-14T06:58:38;32.53;;;21.87;;
7179;SDS011;3631;42.152;24.756;2022-11-14T07:01:07;35.70;;;22.17;;
7179;SDS011;3631;42.152;24.756;2022-11-14T07:03:36;42.53;;;24.97;;
7179;SDS011;3631;42.152;24.756;2022-11-14T07:06:04;38.33;;;23.97;;
7179;SDS011;3631;42.152;24.756;2022-11-14T07:08:32;29.97;;;20.87;;
7179;SDS011;3631;42.152;24.756;2022-11-14T07:11:00;32.03;;;19.50;;
7179;SDS011;3631;42.152;24.756;2022-11-14T07:13:29;30.10;;;19.23;;
7179;SDS011;3631;42.152;24.756;2022-11-14T07:15:57;31.10;;;18.33;;
7179;SDS011;3631;42.152;24.756;2022-11-14T07:18:24;24.60;;;17.07;;
7179;SDS011;3631;42.152;24.756;2022-11-14T07:20:55;26.20;;;17.73;;
7179;SDS011;3631;42.152;24.756;2022-11-14T07:23:23;24.93;;;16.30;;
7179;SDS011;3631;42.152;24.756;2022-11-14T07:25:50;31.23;;;18.50;;
7179;SDS011;3631;42.152;24.756;2022-11-14T07:28:18;27.53;;;18.23;;
7179;SDS011;3631;42.152;24.756;2022-11-14T07:30:46;26.70;;;18.17;;
7179;SDS011;3631;42.152;24.756;2022-11-14T07:33:13;28.60;;;18.57;;
7179;SDS011;3631;42.152;24.756;2022-11-14T07:35:40;27.13;;;16.97;;
7179;SDS011;3631;42.152;24.756;2022-11-14T07:38:07;31.70;;;17.30;;
7179;SDS011;3631;42.152;24.756;2022-11-14T07:40:34;28.53;;;17.53;;
7179;SDS011;3631;42.152;24.756;2022-11-14T07:43:02;31.53;;;17.27;;
7179;SDS011;3631;42.152;24.756;2022-11-14T07:45:29;25.97;;;17.63;;
7179;SDS011;3631;42.152;24.756;2022-11-14T07:47:58;31.23;;;19.40;;
7179;SDS011;3631;42.152;24.756;2022-11-14T07:50:28;33.97;;;19.77;;
7179;SDS011;3631;42.152;24.756;2022-11-14T07:52:56;25.93;;;18.70;;
7179;SDS011;3631;42.152;24.756;2022-11-14T07:55:23;28.60;;;18.50;;
7179;SDS011;3631;42.152;24.756;2022-11-14T07:57:53;32.43;;;19.80;;
7179;SDS011;3631;42.152;24.756;2022-11-14T08:00:21;35.90;;;19.63;;
7179;SDS011;3631;42.152;24.756;2022-11-14T08:02:48;38.50;;;20.57;;
7179;SDS011;3631;42.152;24.756;2022-11-14T08:05:16;32.73;;;19.00;;
7179;SDS011;3631;42.152;24.756;2022-11-14T08:07:43;27.43;;;18.87;;
7179;SDS011;3631;42.152;24.756;2022-11-14T08:10:10;26.23;;;17.87;;
7179;SDS011;3631;42.152;24.756;2022-11-14T08:12:38;27.70;;;18.33;;
7179;SDS011;3631;42.152;24.756;2022-11-14T08:15:06;27.43;;;16.97;;
7179;SDS011;3631;42.152;24.756;2022-11-14T08:17:35;28.57;;;18.37;;
7179;SDS011;3631;42.152;24.756;2022-11-14T08:20:02;33.47;;;19.77;;
7179;SDS011;3631;42.152;24.756;2022-11-14T08:22:31;31.60;;;17.83;;
7179;SDS011;3631;42.152;24.756;2022-11-14T08:24:58;29.03;;;18.63;;
7179;SDS011;3631;42.152;24.756;2022-11-14T08:27:25;26.23;;;16.73;;
7179;SDS011;3631;42.152;24.756;2022-11-14T08:29:51;28.10;;;17.50;;
7179;SDS011;3631;42.152;24.756;2022-11-14T08:32:18;33.77;;;17.83;;
7179;SDS011;3631;42.152;24.756;2022-11-14T08:34:45;34.03;;;18.33;;
7179;SDS011;3631;42.152;24.756;2022-11-14T08:37:12;24.17;;;16.43;;
7179;SDS011;3631;42.152;24.756;2022-11-14T08:39:41;23.10;;;16.50;;
7179;SDS011;3631;42.152;24.756;2022-11-14T08:42:08;25.57;;;16.20;;
7179;SDS011;3631;42.152;24.756;2022-11-14T08:44:35;22.00;;;16.73;;
7179;SDS011;3631;42.152;24.756;2022-11-14T08:47:02;24.30;;;16.73;;
7179;SDS011;3631;42.152;24.756;2022-11-14T08:49:29;28.00;;;16.93;;
7179;SDS011;3631;42.152;24.756;2022-11-14T08:51:56;26.27;;;17.13;;
7179;SDS011;3631;42.152;24.756;2022-11-14T08:54:23;23.70;;;16.43;;
7179;SDS011;3631;42.152;24.756;2022-11-14T08:56:51;24.23;;;16.50;;
7179;SDS011;3631;42.152;24.756;2022-11-14T08:59:18;23.10;;;16.03;;
7179;SDS011;3631;42.152;24.756;2022-11-14T09:01:45;22.77;;;16.47;;
7179;SDS011;3631;42.152;24.756;2022-11-14T09:04:12;23.83;;;16.10;;
7179;SDS011;3631;42.152;24.756;2022-11-14T09:06:39;20.97;;;16.17;;
7179;SDS011;3631;42.152;24.756;2022-11-14T09:09:06;32.57;;;17.23;;
7179;SDS011;3631;42.152;24.756;2022-11-14T09:11:33;27.13;;;16.97;;
7179;SDS011;3631;42.152;24.756;2022-11-14T09:14:01;30.27;;;17.30;;
7179;SDS011;3631;42.152;24.756;2022-11-14T09:16:28;27.13;;;18.07;;
7179;SDS011;3631;42.152;24.756;2022-11-14T09:18:55;27.63;;;16.17;;
7179;SDS011;3631;42.152;24.756;2022-11-14T09:21:22;31.70;;;17.20;;
7179;SDS011;3631;42.152;24.756;2022-11-14T09:23:49;25.17;;;17.80;;
7179;SDS011;3631;42.152;24.756;2022-11-14T09:26:16;31.10;;;18.87;;
7179;SDS011;3631;42.152;24.756;2022-11-14T09:28:43;24.87;;;16.77;;
7179;SDS011;3631;42.152;24.756;2022-11-14T09:31:12;24.00;;;15.87;;
7179;SDS011;3631;42.152;24.756;2022-11-14T09:33:39;24.83;;;17.40;;
7179;SDS011;3631;42.152;24.756;2022-11-14T09:36:07;27.00;;;17.27;;
7179;SDS011;3631;42.152;24.756;2022-11-14T09:38:39;27.80;;;17.40;;
7179;SDS011;3631;42.152;24.756;2022-11-14T09:41:21;29.27;;;18.30;;
7179;SDS011;3631;42.152;24.756;2022-11-14T09:44:01;25.70;;;17.63;;
7179;SDS011;3631;42.152;24.756;2022-11-14T09:46:42;29.60;;;19.37;;
7179;SDS011;3631;42.152;24.756;2022-11-14T09:49:15;33.77;;;18.50;;
7179;SDS011;3631;42.152;24.756;2022-11-14T09:51:50;34.20;;;20.00;;
7179;SDS011;3631;42.152;24.756;2022-11-14T09:54:23;24.63;;;17.77;;
7179;SDS011;3631;42.152;24.756;2022-11-14T09:56:51;24.57;;;17.03;;
7179;SDS011;3631;42.152;24.756;2022-11-14T09:59:19;31.97;;;18.83;;
7179;SDS011;3631;42.152;24.756;2022-11-14T10:01:50;54.90;;;26.87;;
7179;SDS011;3631;42.152;24.756;2022-11-14T10:04:24;51.20;;;28.93;;
7179;SDS011;3631;42.152;24.756;2022-11-14T10:07:00;44.57;;;23.10;;
7179;SDS011;3631;42.152;24.756;2022-11-14T10:09:40;39.47;;;21.73;;
7179;SDS011;3631;42.152;24.756;2022-11-14T10:12:17;86.47;;;40.13;;
7179;SDS011;3631;42.152;24.756;2022-11-14T10:17:49;39.03;;;23.00;;
7179;SDS011;3631;42.152;24.756;2022-11-14T10:20:28;33.30;;;21.60;;
7179;SDS011;3631;42.152;24.756;2022-11-14T10:23:04;36.43;;;22.30;;
7179;SDS011;3631;42.152;24.756;2022-11-14T10:25:45;44.47;;;24.90;;
7179;SDS011;3631;42.152;24.756;2022-11-14T10:28:21;40.07;;;25.20;;
7179;SDS011;3631;42.152;24.756;2022-11-14T10:31:07;41.33;;;24.13;;
7179;SDS011;3631;42.152;24.756;2022-11-14T10:33:47;49.53;;;31.70;;
7179;SDS011;3631;42.152;24.756;2022-11-14T10:36:26;43.10;;;26.50;;
7179;SDS011;3631;42.152;24.756;2022-11-14T10:39:06;44.03;;;23.50;;
7179;SDS011;3631;42.152;24.756;2022-11-14T10:41:39;40.40;;;24.07;;
7179;SDS011;3631;42.152;24.756;2022-11-14T10:44:08;45.30;;;25.70;;
7179;SDS011;3631;42.152;24.756;2022-11-14T10:46:39;34.33;;;22.87;;
7179;SDS011;3631;42.152;24.756;2022-11-14T10:49:16;32.87;;;22.17;;
7179;SDS011;3631;42.152;24.756;2022-11-14T10:51:46;33.23;;;21.10;;
7179;SDS011;3631;42.152;24.756;2022-11-14T10:54:18;39.90;;;26.50;;
7179;SDS011;3631;42.152;24.756;2022-11-14T10:56:51;36.73;;;22.53;;
7179;SDS011;3631;42.152;24.756;2022-11-14T10:59:20;34.07;;;21.90;;
7179;SDS011;3631;42.152;24.756;2022-11-14T11:01:55;32.13;;;20.93;;
7179;SDS011;3631;42.152;24.756;2022-11-14T11:04:27;32.23;;;21.50;;
7179;SDS011;3631;42.152;24.756;2022-11-14T11:06:57;39.97;;;21.90;;
7179;SDS011;3631;42.152;24.756;2022-11-14T11:09:58;45.93;;;28.60;;
7179;SDS011;3631;42.152;24.756;2022-11-14T11:12:43;36.20;;;22.33;;
7179;SDS011;3631;42.152;24.756;2022-11-14T11:15:13;35.97;;;24.43;;
7179;SDS011;3631;42.152;24.756;2022-11-14T11:17:52;34.03;;;22.57;;
7179;SDS011;3631;42.152;24.756;2022-11-14T11:20:26;32.40;;;21.60;;
7179;SDS011;3631;42.152;24.756;2022-11-14T11:23:01;31.50;;;21.93;;
7179;SDS011;3631;42.152;24.756;2022-11-14T11:25:31;34.00;;;22.10;;
7179;SDS011;3631;42.152;24.756;2022-11-14T11:28:06;35.07;;;21.23;;
7179;SDS011;3631;42.152;24.756;2022-11-14T11:30:36;31.60;;;20.30;;
7179;SDS011;3631;42.152;24.756;2022-11-14T11:33:14;31.33;;;20.63;;
7179;SDS011;3631;42.152;24.756;2022-11-14T11:35:43;28.37;;;19.73;;
7179;SDS011;3631;42.152;24.756;2022-11-14T11:38:13;30.00;;;19.43;;
7179;SDS011;3631;42.152;24.756;2022-11-14T11:40:42;32.83;;;22.50;;
7179;SDS011;3631;42.152;24.756;2022-11-14T11:43:13;34.33;;;20.97;;
7179;SDS011;3631;42.152;24.756;2022-11-14T11:45:43;30.70;;;20.67;;
7179;SDS011;3631;42.152;24.756;2022-11-14T11:48:15;29.80;;;19.43;;
7179;SDS011;3631;42.152;24.756;2022-11-14T11:50:45;28.27;;;20.40;;
7179;SDS011;3631;42.152;24.756;2022-11-14T11:53:15;34.53;;;20.17;;
7179;SDS011;3631;42.152;24.756;2022-11-14T11:55:48;28.33;;;20.70;;
7179;SDS011;3631;42.152;24.756;2022-11-14T11:58:19;29.37;;;20.37;;
7179;SDS011;3631;42.152;24.756;2022-11-14T12:00:50;29.00;;;19.33;;
7179;SDS011;3631;42.152;24.756;2022-11-14T12:03:19;30.90;;;18.80;;
7179;SDS011;3631;42.152;24.756;2022-11-14T12:05:51;27.20;;;18.63;;
7179;SDS011;3631;42.152;24.756;2022-11-14T12:08:25;29.30;;;19.67;;
7179;SDS011;3631;42.152;24.756;2022-11-14T12:11:01;27.23;;;19.47;;
7179;SDS011;3631;42.152;24.756;2022-11-14T12:13:48;26.37;;;18.77;;
7179;SDS011;3631;42.152;24.756;2022-11-14T12:16:29;28.47;;;18.70;;
7179;SDS011;3631;42.152;24.756;2022-11-14T12:19:12;29.90;;;19.30;;
7179;SDS011;3631;42.152;24.756;2022-11-14T12:22:02;31.30;;;20.60;;
7179;SDS011;3631;42.152;24.756;2022-11-14T12:30:30;26.63;;;18.17;;
7179;SDS011;3631;42.152;24.756;2022-11-14T12:33:00;28.13;;;18.80;;
7179;SDS011;3631;42.152;24.756;2022-11-14T12:35:33;27.13;;;18.37;;
7179;SDS011;3631;42.152;24.756;2022-11-14T12:38:11;25.30;;;18.97;;
7179;SDS011;3631;42.152;24.756;2022-11-14T12:40:47;28.27;;;19.13;;
7179;SDS011;3631;42.152;24.756;2022-11-14T12:43:27;31.10;;;20.03;;
7179;SDS011;3631;42.152;24.756;2022-11-14T12:45:59;28.97;;;19.23;;
7179;SDS011;3631;42.152;24.756;2022-11-14T12:48:34;27.07;;;18.97;;
7179;SDS011;3631;42.152;24.756;2022-11-14T12:51:03;28.07;;;19.67;;
7179;SDS011;3631;42.152;24.756;2022-11-14T12:53:53;29.20;;;19.60;;
7179;SDS011;3631;42.152;24.756;2022-11-14T13:02:26;28.47;;;19.70;;
7179;SDS011;3631;42.152;24.756;2022-11-14T13:05:28;30.70;;;20.37;;
7179;SDS011;3631;42.152;24.756;2022-11-14T13:08:08;27.27;;;19.03;;
7179;SDS011;3631;42.152;24.756;2022-11-14T13:10:48;36.03;;;19.63;;
7179;SDS011;3631;42.152;24.756;2022-11-14T13:13:15;33.60;;;21.03;;
7179;SDS011;3631;42.152;24.756;2022-11-14T13:16:00;26.50;;;18.67;;
7179;SDS011;3631;42.152;24.756;2022-11-14T13:19:01;30.90;;;20.43;;
7179;SDS011;3631;42.152;24.756;2022-11-14T13:25:15;29.17;;;20.00;;
7179;SDS011;3631;42.152;24.756;2022-11-14T13:27:48;28.33;;;19.97;;
7179;SDS011;3631;42.152;24.756;2022-11-14T13:30:19;29.90;;;20.53;;
7179;SDS011;3631;42.152;24.756;2022-11-14T13:33:39;25.40;;;18.43;;
7179;SDS011;3631;42.152;24.756;2022-11-14T13:36:07;32.07;;;19.77;;
7179;SDS011;3631;42.152;24.756;2022-11-14T13:38:55;30.20;;;20.53;;
7179;SDS011;3631;42.152;24.756;2022-11-14T13:51:14;29.70;;;21.90;;
7179;SDS011;3631;42.152;24.756;2022-11-14T13:53:42;30.23;;;20.70;;
7179;SDS011;3631;42.152;24.756;2022-11-14T13:56:13;28.57;;;19.97;;
7179;SDS011;3631;42.152;24.756;2022-11-14T13:58:59;27.27;;;19.83;;
7179;SDS011;3631;42.152;24.756;2022-11-14T14:01:53;34.90;;;22.60;;
7179;SDS011;3631;42.152;24.756;2022-11-14T14:04:40;34.37;;;22.67;;
7179;SDS011;3631;42.152;24.756;2022-11-14T14:07:20;35.33;;;21.87;;
7179;SDS011;3631;42.152;24.756;2022-11-14T14:09:58;40.80;;;25.53;;
7179;SDS011;3631;42.152;24.756;2022-11-14T14:12:38;57.23;;;30.60;;
7179;SDS011;3631;42.152;24.756;2022-11-14T14:15:19;38.97;;;23.83;;
7179;SDS011;3631;42.152;24.756;2022-11-14T14:17:59;34.50;;;23.03;;
7179;SDS011;3631;42.152;24.756;2022-11-14T14:20:39;42.03;;;27.67;;
7179;SDS011;3631;42.152;24.756;2022-11-14T14:23:20;50.57;;;30.93;;
7179;SDS011;3631;42.152;24.756;2022-11-14T14:25:59;39.37;;;25.37;;
7179;SDS011;3631;42.152;24.756;2022-11-14T14:28:39;35.67;;;24.47;;
7179;SDS011;3631;42.152;24.756;2022-11-14T14:31:17;34.03;;;23.27;;
7179;SDS011;3631;42.152;24.756;2022-11-14T14:33:49;34.60;;;22.37;;
7179;SDS011;3631;42.152;24.756;2022-11-14T14:36:17;34.13;;;23.23;;
7179;SDS011;3631;42.152;24.756;2022-11-14T14:38:46;34.83;;;22.70;;
7179;SDS011;3631;42.152;24.756;2022-11-14T14:41:15;36.70;;;24.27;;
7179;SDS011;3631;42.152;24.756;2022-11-14T14:43:48;43.70;;;27.00;;
7179;SDS011;3631;42.152;24.756;2022-11-14T14:46:24;39.67;;;25.07;;
7179;SDS011;3631;42.152;24.756;2022-11-14T14:48:55;42.50;;;26.77;;
7179;SDS011;3631;42.152;24.756;2022-11-14T14:51:30;52.17;;;28.50;;
7179;SDS011;3631;42.152;24.756;2022-11-14T14:53:58;41.07;;;26.60;;
7179;SDS011;3631;42.152;24.756;2022-11-14T14:56:26;43.13;;;25.57;;
7179;SDS011;3631;42.152;24.756;2022-11-14T14:58:53;44.37;;;29.13;;
7179;SDS011;3631;42.152;24.756;2022-11-14T15:01:21;45.00;;;28.90;;
7179;SDS011;3631;42.152;24.756;2022-11-14T15:03:53;46.80;;;28.27;;
7179;SDS011;3631;42.152;24.756;2022-11-14T15:06:28;54.57;;;29.90;;
7179;SDS011;3631;42.152;24.756;2022-11-14T15:08:58;52.47;;;33.47;;
7179;SDS011;3631;42.152;24.756;2022-11-14T15:11:28;63.30;;;36.50;;
7179;SDS011;3631;42.152;24.756;2022-11-14T15:13:56;62.53;;;37.40;;
7179;SDS011;3631;42.152;24.756;2022-11-14T15:16:24;80.40;;;44.67;;
7179;SDS011;3631;42.152;24.756;2022-11-14T15:18:53;75.63;;;42.37;;